sensor_id;sensor_type;location;lat;lon;timestamp;P1;durP1;ratioP1;P2;durP2;ratioP2
44764;SDS011;30484;52.382;5.260;2023-06-22T00:01:12;16.00;;;9.55;;
44764;SDS011;30484;52.382;5.260;2023-06-22T00:03:41;15.95;;;9.38;;
44764;SDS011;30484;52.382;5.260;2023-06-22T00:06:11;16.35;;;9.23;;
44764;SDS011;30484;52.382;5.260;2023-06-22T00:08:40;19.90;;;9.43;;
44764;SDS011;30484;52.382;5.260;2023-06-22T00:11:13;18.10;;;10.25;;
44764;SDS011;30484;52.382;5.260;2023-06-22T00:13:45;14.18;;;9.68;;
44764;SDS011;30484;52.382;5.260;2023-06-22T00:16:17;16.40;;;10.32;;
44764;SDS011;30484;52.382;5.260;2023-06-22T00:18:46;16.65;;;10.57;;
44764;SDS011;30484;52.382;5.260;2023-06-22T00:21:15;21.77;;;13.65;;
44764;SDS011;30484;52.382;5.260;2023-06-22T00:23:47;18.60;;;13.23;;
44764;SDS011;30484;52.382;5.260;2023-06-22T00:26:16;22.55;;;12.57;;
44764;SDS011;30484;52.382;5.260;2023-06-22T00:28:50;18.08;;;11.70;;
44764;SDS011;30484;52.382;5.260;2023-06-22T00:31:19;21.48;;;11.50;;
44764;SDS011;30484;52.382;5.260;2023-06-22T00:33:49;20.00;;;11.80;;
44764;SDS011;30484;52.382;5.260;2023-06-22T00:36:18;20.90;;;12.32;;
44764;SDS011;30484;52.382;5.260;2023-06-22T00:38:51;20.30;;;13.15;;
44764;SDS011;30484;52.382;5.260;2023-06-22T00:41:21;30.63;;;17.17;;
44764;SDS011;30484;52.382;5.260;2023-06-22T00:43:52;23.33;;;15.95;;
44764;SDS011;30484;52.382;5.260;2023-06-22T00:46:25;21.38;;;14.27;;
44764;SDS011;30484;52.382;5.260;2023-06-22T00:48:56;24.65;;;14.35;;
44764;SDS011;30484;52.382;5.260;2023-06-22T00:51:26;22.77;;;13.70;;
44764;SDS011;30484;52.382;5.260;2023-06-22T00:53:54;21.15;;;14.40;;
44764;SDS011;30484;52.382;5.260;2023-06-22T00:56:23;26.02;;;15.50;;
44764;SDS011;30484;52.382;5.260;2023-06-22T00:58:54;22.75;;;14.90;;
44764;SDS011;30484;52.382;5.260;2023-06-22T01:01:23;29.55;;;16.60;;
44764;SDS011;30484;52.382;5.260;2023-06-22T01:03:52;25.95;;;17.25;;
44764;SDS011;30484;52.382;5.260;2023-06-22T01:06:26;29.23;;;17.15;;
44764;SDS011;30484;52.382;5.260;2023-06-22T01:09:06;30.35;;;17.08;;
44764;SDS011;30484;52.382;5.260;2023-06-22T01:11:44;26.23;;;16.98;;
44764;SDS011;30484;52.382;5.260;2023-06-22T01:14:21;31.98;;;18.42;;
44764;SDS011;30484;52.382;5.260;2023-06-22T01:16:56;29.20;;;18.13;;
44764;SDS011;30484;52.382;5.260;2023-06-22T01:19:31;32.08;;;19.65;;
44764;SDS011;30484;52.382;5.260;2023-06-22T01:22:08;36.10;;;20.73;;
44764;SDS011;30484;52.382;5.260;2023-06-22T01:24:45;33.70;;;19.48;;
44764;SDS011;30484;52.382;5.260;2023-06-22T01:27:28;34.83;;;19.65;;
44764;SDS011;30484;52.382;5.260;2023-06-22T01:30:10;32.80;;;20.65;;
44764;SDS011;30484;52.382;5.260;2023-06-22T01:32:41;36.58;;;21.10;;
44764;SDS011;30484;52.382;5.260;2023-06-22T01:35:12;37.67;;;21.42;;
44764;SDS011;30484;52.382;5.260;2023-06-22T01:37:42;35.40;;;20.67;;
44764;SDS011;30484;52.382;5.260;2023-06-22T01:40:11;35.05;;;21.60;;
44764;SDS011;30484;52.382;5.260;2023-06-22T01:42:41;36.35;;;20.20;;
44764;SDS011;30484;52.382;5.260;2023-06-22T01:45:12;34.67;;;20.73;;
44764;SDS011;30484;52.382;5.260;2023-06-22T01:47:42;35.03;;;21.83;;
44764;SDS011;30484;52.382;5.260;2023-06-22T01:50:11;41.13;;;23.58;;
44764;SDS011;30484;52.382;5.260;2023-06-22T01:52:40;36.03;;;22.65;;
44764;SDS011;30484;52.382;5.260;2023-06-22T01:55:09;40.35;;;22.80;;
44764;SDS011;30484;52.382;5.260;2023-06-22T01:57:38;39.78;;;22.85;;
44764;SDS011;30484;52.382;5.260;2023-06-22T02:00:09;39.72;;;23.10;;
44764;SDS011;30484;52.382;5.260;2023-06-22T02:02:51;41.30;;;24.95;;
44764;SDS011;30484;52.382;5.260;2023-06-22T02:08:08;42.97;;;24.98;;
44764;SDS011;30484;52.382;5.260;2023-06-22T02:10:43;43.70;;;26.52;;
44764;SDS011;30484;52.382;5.260;2023-06-22T02:13:13;51.22;;;28.83;;
44764;SDS011;30484;52.382;5.260;2023-06-22T02:15:46;47.88;;;27.45;;
44764;SDS011;30484;52.382;5.260;2023-06-22T02:18:15;50.22;;;28.63;;
44764;SDS011;30484;52.382;5.260;2023-06-22T02:20:45;57.03;;;29.40;;
44764;SDS011;30484;52.382;5.260;2023-06-22T02:23:13;49.65;;;29.13;;
44764;SDS011;30484;52.382;5.260;2023-06-22T02:25:42;53.10;;;31.55;;
44764;SDS011;30484;52.382;5.260;2023-06-22T02:28:11;58.03;;;33.45;;
44764;SDS011;30484;52.382;5.260;2023-06-22T02:30:40;62.40;;;34.97;;
44764;SDS011;30484;52.382;5.260;2023-06-22T02:33:14;58.88;;;34.25;;
44764;SDS011;30484;52.382;5.260;2023-06-22T02:35:43;55.65;;;33.95;;
44764;SDS011;30484;52.382;5.260;2023-06-22T02:38:15;53.70;;;32.75;;
44764;SDS011;30484;52.382;5.260;2023-06-22T02:40:50;53.60;;;30.85;;
44764;SDS011;30484;52.382;5.260;2023-06-22T02:43:20;59.15;;;32.28;;
44764;SDS011;30484;52.382;5.260;2023-06-22T02:45:49;55.10;;;32.33;;
44764;SDS011;30484;52.382;5.260;2023-06-22T02:48:24;56.45;;;33.00;;
44764;SDS011;30484;52.382;5.260;2023-06-22T02:50:53;53.55;;;31.92;;
44764;SDS011;30484;52.382;5.260;2023-06-22T02:53:22;59.35;;;34.33;;
44764;SDS011;30484;52.382;5.260;2023-06-22T02:55:52;65.28;;;38.00;;
44764;SDS011;30484;52.382;5.260;2023-06-22T02:58:22;59.47;;;35.13;;
44764;SDS011;30484;52.382;5.260;2023-06-22T03:00:52;63.08;;;36.97;;
44764;SDS011;30484;52.382;5.260;2023-06-22T03:03:24;61.20;;;35.25;;
44764;SDS011;30484;52.382;5.260;2023-06-22T03:05:53;69.40;;;38.90;;
44764;SDS011;30484;52.382;5.260;2023-06-22T03:08:23;76.07;;;40.42;;
44764;SDS011;30484;52.382;5.260;2023-06-22T03:10:52;56.75;;;33.10;;
44764;SDS011;30484;52.382;5.260;2023-06-22T03:13:24;67.40;;;37.97;;
44764;SDS011;30484;52.382;5.260;2023-06-22T03:15:55;65.82;;;37.53;;
44764;SDS011;30484;52.382;5.260;2023-06-22T03:18:27;68.05;;;38.42;;
44764;SDS011;30484;52.382;5.260;2023-06-22T03:20:56;63.90;;;38.13;;
44764;SDS011;30484;52.382;5.260;2023-06-22T03:23:26;71.78;;;40.08;;
44764;SDS011;30484;52.382;5.260;2023-06-22T03:25:55;67.72;;;37.85;;
44764;SDS011;30484;52.382;5.260;2023-06-22T03:28:24;64.00;;;37.75;;
44764;SDS011;30484;52.382;5.260;2023-06-22T03:30:54;68.05;;;38.63;;
44764;SDS011;30484;52.382;5.260;2023-06-22T03:33:27;68.80;;;39.47;;
44764;SDS011;30484;52.382;5.260;2023-06-22T03:35:57;62.63;;;36.75;;
44764;SDS011;30484;52.382;5.260;2023-06-22T03:38:27;69.30;;;37.40;;
44764;SDS011;30484;52.382;5.260;2023-06-22T03:43:35;64.32;;;36.10;;
44764;SDS011;30484;52.382;5.260;2023-06-22T03:46:04;62.58;;;35.03;;
44764;SDS011;30484;52.382;5.260;2023-06-22T03:48:34;60.70;;;35.92;;
44764;SDS011;30484;52.382;5.260;2023-06-22T03:51:03;60.22;;;34.75;;
44764;SDS011;30484;52.382;5.260;2023-06-22T03:53:31;59.25;;;35.40;;
44764;SDS011;30484;52.382;5.260;2023-06-22T03:56:00;64.13;;;37.63;;
44764;SDS011;30484;52.382;5.260;2023-06-22T03:58:29;63.33;;;37.55;;
44764;SDS011;30484;52.382;5.260;2023-06-22T04:00:59;67.03;;;35.83;;
44764;SDS011;30484;52.382;5.260;2023-06-22T04:03:30;63.25;;;36.92;;
44764;SDS011;30484;52.382;5.260;2023-06-22T04:06:00;61.47;;;37.58;;
44764;SDS011;30484;52.382;5.260;2023-06-22T04:08:29;60.70;;;36.85;;
44764;SDS011;30484;52.382;5.260;2023-06-22T04:11:00;66.25;;;36.03;;
44764;SDS011;30484;52.382;5.260;2023-06-22T04:13:30;52.72;;;33.15;;
44764;SDS011;30484;52.382;5.260;2023-06-22T04:15:58;62.80;;;36.42;;
44764;SDS011;30484;52.382;5.260;2023-06-22T04:18:28;61.60;;;36.28;;
44764;SDS011;30484;52.382;5.260;2023-06-22T04:20:56;68.20;;;37.60;;
44764;SDS011;30484;52.382;5.260;2023-06-22T04:23:26;71.53;;;40.88;;
44764;SDS011;30484;52.382;5.260;2023-06-22T04:25:55;64.97;;;38.40;;
44764;SDS011;30484;52.382;5.260;2023-06-22T04:28:24;69.07;;;37.33;;
44764;SDS011;30484;52.382;5.260;2023-06-22T04:30:55;65.20;;;38.97;;
44764;SDS011;30484;52.382;5.260;2023-06-22T04:33:32;71.63;;;40.85;;
44764;SDS011;30484;52.382;5.260;2023-06-22T04:36:00;71.05;;;41.30;;
44764;SDS011;30484;52.382;5.260;2023-06-22T04:38:36;69.68;;;41.40;;
44764;SDS011;30484;52.382;5.260;2023-06-22T04:41:04;73.78;;;43.90;;
44764;SDS011;30484;52.382;5.260;2023-06-22T04:43:36;74.78;;;43.35;;
44764;SDS011;30484;52.382;5.260;2023-06-22T04:46:07;68.13;;;40.78;;
44764;SDS011;30484;52.382;5.260;2023-06-22T04:48:37;65.70;;;40.80;;
44764;SDS011;30484;52.382;5.260;2023-06-22T04:51:06;70.50;;;41.85;;
44764;SDS011;30484;52.382;5.260;2023-06-22T04:53:36;69.68;;;42.15;;
44764;SDS011;30484;52.382;5.260;2023-06-22T04:56:08;73.82;;;41.63;;
44764;SDS011;30484;52.382;5.260;2023-06-22T04:58:36;72.03;;;40.55;;
44764;SDS011;30484;52.382;5.260;2023-06-22T05:01:05;68.13;;;41.50;;
44764;SDS011;30484;52.382;5.260;2023-06-22T05:03:35;60.47;;;39.05;;
44764;SDS011;30484;52.382;5.260;2023-06-22T05:06:04;73.00;;;43.42;;
44764;SDS011;30484;52.382;5.260;2023-06-22T05:08:33;72.47;;;41.75;;
44764;SDS011;30484;52.382;5.260;2023-06-22T05:11:03;74.47;;;43.25;;
44764;SDS011;30484;52.382;5.260;2023-06-22T05:13:32;66.53;;;41.40;;
44764;SDS011;30484;52.382;5.260;2023-06-22T05:16:00;64.57;;;41.08;;
44764;SDS011;30484;52.382;5.260;2023-06-22T05:18:29;66.10;;;41.35;;
44764;SDS011;30484;52.382;5.260;2023-06-22T05:20:58;61.67;;;40.42;;
44764;SDS011;30484;52.382;5.260;2023-06-22T05:23:27;60.00;;;38.33;;
44764;SDS011;30484;52.382;5.260;2023-06-22T05:25:56;59.78;;;38.58;;
44764;SDS011;30484;52.382;5.260;2023-06-22T05:28:26;57.70;;;36.30;;
44764;SDS011;30484;52.382;5.260;2023-06-22T05:30:54;63.92;;;39.53;;
44764;SDS011;30484;52.382;5.260;2023-06-22T05:33:23;58.40;;;37.83;;
44764;SDS011;30484;52.382;5.260;2023-06-22T05:35:52;57.80;;;36.15;;
44764;SDS011;30484;52.382;5.260;2023-06-22T05:38:20;52.83;;;34.58;;
44764;SDS011;30484;52.382;5.260;2023-06-22T05:40:49;58.28;;;36.10;;
44764;SDS011;30484;52.382;5.260;2023-06-22T05:43:17;58.13;;;35.78;;
44764;SDS011;30484;52.382;5.260;2023-06-22T05:45:47;55.13;;;35.83;;
44764;SDS011;30484;52.382;5.260;2023-06-22T05:48:16;54.28;;;37.35;;
44764;SDS011;30484;52.382;5.260;2023-06-22T05:50:44;53.38;;;35.80;;
44764;SDS011;30484;52.382;5.260;2023-06-22T05:53:13;52.75;;;35.33;;
44764;SDS011;30484;52.382;5.260;2023-06-22T05:55:42;52.70;;;33.95;;
44764;SDS011;30484;52.382;5.260;2023-06-22T05:58:11;51.63;;;35.00;;
44764;SDS011;30484;52.382;5.260;2023-06-22T06:00:42;48.78;;;33.33;;
44764;SDS011;30484;52.382;5.260;2023-06-22T06:03:18;48.63;;;33.25;;
44764;SDS011;30484;52.382;5.260;2023-06-22T06:05:47;55.70;;;34.22;;
44764;SDS011;30484;52.382;5.260;2023-06-22T06:08:16;53.22;;;34.08;;
44764;SDS011;30484;52.382;5.260;2023-06-22T06:10:46;42.95;;;30.63;;
44764;SDS011;30484;52.382;5.260;2023-06-22T06:13:15;48.15;;;32.15;;
44764;SDS011;30484;52.382;5.260;2023-06-22T06:15:43;47.50;;;31.88;;
44764;SDS011;30484;52.382;5.260;2023-06-22T06:18:12;45.25;;;30.88;;
44764;SDS011;30484;52.382;5.260;2023-06-22T06:20:43;47.38;;;32.78;;
44764;SDS011;30484;52.382;5.260;2023-06-22T06:23:11;46.40;;;31.75;;
44764;SDS011;30484;52.382;5.260;2023-06-22T06:25:40;44.72;;;29.92;;
44764;SDS011;30484;52.382;5.260;2023-06-22T06:28:09;44.53;;;30.60;;
44764;SDS011;30484;52.382;5.260;2023-06-22T06:30:37;47.42;;;31.05;;
44764;SDS011;30484;52.382;5.260;2023-06-22T06:33:07;48.88;;;30.20;;
44764;SDS011;30484;52.382;5.260;2023-06-22T06:35:36;51.95;;;32.28;;
44764;SDS011;30484;52.382;5.260;2023-06-22T06:38:06;39.75;;;28.00;;
44764;SDS011;30484;52.382;5.260;2023-06-22T06:40:35;38.63;;;27.75;;
44764;SDS011;30484;52.382;5.260;2023-06-22T06:43:03;37.30;;;26.02;;
44764;SDS011;30484;52.382;5.260;2023-06-22T06:45:31;38.17;;;26.55;;
44764;SDS011;30484;52.382;5.260;2023-06-22T06:48:01;37.40;;;24.38;;
44764;SDS011;30484;52.382;5.260;2023-06-22T06:50:30;35.50;;;24.50;;
44764;SDS011;30484;52.382;5.260;2023-06-22T06:52:59;35.72;;;25.33;;
44764;SDS011;30484;52.382;5.260;2023-06-22T06:55:29;33.33;;;24.60;;
44764;SDS011;30484;52.382;5.260;2023-06-22T06:57:59;36.85;;;24.08;;
44764;SDS011;30484;52.382;5.260;2023-06-22T07:00:32;28.05;;;20.35;;
44764;SDS011;30484;52.382;5.260;2023-06-22T07:03:02;40.78;;;22.98;;
44764;SDS011;30484;52.382;5.260;2023-06-22T07:05:31;33.88;;;23.17;;
44764;SDS011;30484;52.382;5.260;2023-06-22T07:07:59;33.75;;;22.70;;
44764;SDS011;30484;52.382;5.260;2023-06-22T07:10:30;29.60;;;22.48;;
44764;SDS011;30484;52.382;5.260;2023-06-22T07:12:58;34.03;;;22.33;;
44764;SDS011;30484;52.382;5.260;2023-06-22T07:15:27;30.77;;;20.45;;
44764;SDS011;30484;52.382;5.260;2023-06-22T07:17:56;30.23;;;21.80;;
44764;SDS011;30484;52.382;5.260;2023-06-22T07:20:25;34.45;;;21.85;;
44764;SDS011;30484;52.382;5.260;2023-06-22T07:22:54;30.30;;;21.35;;
44764;SDS011;30484;52.382;5.260;2023-06-22T07:25:22;28.77;;;20.55;;
44764;SDS011;30484;52.382;5.260;2023-06-22T07:28:02;29.70;;;20.58;;
44764;SDS011;30484;52.382;5.260;2023-06-22T07:30:33;28.50;;;19.95;;
44764;SDS011;30484;52.382;5.260;2023-06-22T07:33:15;25.92;;;17.92;;
44764;SDS011;30484;52.382;5.260;2023-06-22T07:35:44;28.98;;;19.58;;
44764;SDS011;30484;52.382;5.260;2023-06-22T07:38:15;26.73;;;19.23;;
44764;SDS011;30484;52.382;5.260;2023-06-22T07:40:45;28.67;;;20.13;;
44764;SDS011;30484;52.382;5.260;2023-06-22T07:43:19;29.23;;;20.05;;
44764;SDS011;30484;52.382;5.260;2023-06-22T07:45:49;25.97;;;19.47;;
44764;SDS011;30484;52.382;5.260;2023-06-22T07:48:20;26.25;;;18.02;;
44764;SDS011;30484;52.382;5.260;2023-06-22T07:50:50;25.70;;;17.63;;
44764;SDS011;30484;52.382;5.260;2023-06-22T07:53:19;24.27;;;17.45;;
44764;SDS011;30484;52.382;5.260;2023-06-22T07:55:48;29.30;;;17.92;;
44764;SDS011;30484;52.382;5.260;2023-06-22T07:58:18;24.63;;;17.48;;
44764;SDS011;30484;52.382;5.260;2023-06-22T08:00:47;24.85;;;17.17;;
44764;SDS011;30484;52.382;5.260;2023-06-22T08:03:16;23.60;;;16.65;;
44764;SDS011;30484;52.382;5.260;2023-06-22T08:05:44;25.50;;;16.88;;
44764;SDS011;30484;52.382;5.260;2023-06-22T08:08:13;28.73;;;16.70;;
44764;SDS011;30484;52.382;5.260;2023-06-22T08:10:42;22.08;;;15.25;;
44764;SDS011;30484;52.382;5.260;2023-06-22T08:13:11;23.33;;;15.27;;
44764;SDS011;30484;52.382;5.260;2023-06-22T08:15:41;20.65;;;15.25;;
44764;SDS011;30484;52.382;5.260;2023-06-22T08:18:09;25.63;;;16.80;;
44764;SDS011;30484;52.382;5.260;2023-06-22T08:20:38;22.58;;;15.05;;
44764;SDS011;30484;52.382;5.260;2023-06-22T08:23:06;24.63;;;14.88;;
44764;SDS011;30484;52.382;5.260;2023-06-22T08:25:35;24.52;;;15.35;;
44764;SDS011;30484;52.382;5.260;2023-06-22T08:28:04;18.88;;;14.98;;
44764;SDS011;30484;52.382;5.260;2023-06-22T08:30:33;24.58;;;14.93;;
44764;SDS011;30484;52.382;5.260;2023-06-22T08:33:03;19.40;;;14.00;;
44764;SDS011;30484;52.382;5.260;2023-06-22T08:35:32;28.10;;;16.20;;
44764;SDS011;30484;52.382;5.260;2023-06-22T08:38:00;20.20;;;14.82;;
44764;SDS011;30484;52.382;5.260;2023-06-22T08:40:28;20.10;;;14.32;;
44764;SDS011;30484;52.382;5.260;2023-06-22T08:42:57;27.73;;;16.75;;
44764;SDS011;30484;52.382;5.260;2023-06-22T08:45:26;21.05;;;15.07;;
44764;SDS011;30484;52.382;5.260;2023-06-22T08:47:56;20.20;;;14.18;;
44764;SDS011;30484;52.382;5.260;2023-06-22T08:50:26;19.58;;;13.68;;
44764;SDS011;30484;52.382;5.260;2023-06-22T08:52:55;19.88;;;12.95;;
44764;SDS011;30484;52.382;5.260;2023-06-22T08:55:24;19.02;;;13.55;;
44764;SDS011;30484;52.382;5.260;2023-06-22T08:57:53;23.75;;;14.55;;
44764;SDS011;30484;52.382;5.260;2023-06-22T09:00:22;18.90;;;13.00;;
44764;SDS011;30484;52.382;5.260;2023-06-22T09:02:50;26.27;;;13.57;;
44764;SDS011;30484;52.382;5.260;2023-06-22T09:05:19;16.38;;;11.77;;
44764;SDS011;30484;52.382;5.260;2023-06-22T09:07:49;19.17;;;10.95;;
44764;SDS011;30484;52.382;5.260;2023-06-22T09:10:18;17.63;;;11.38;;
44764;SDS011;30484;52.382;5.260;2023-06-22T09:12:46;18.65;;;11.35;;
44764;SDS011;30484;52.382;5.260;2023-06-22T09:15:14;19.17;;;11.65;;
44764;SDS011;30484;52.382;5.260;2023-06-22T09:17:44;17.95;;;11.57;;
44764;SDS011;30484;52.382;5.260;2023-06-22T09:20:14;16.85;;;11.70;;
44764;SDS011;30484;52.382;5.260;2023-06-22T09:22:42;14.77;;;10.98;;
44764;SDS011;30484;52.382;5.260;2023-06-22T09:25:12;12.95;;;9.32;;
44764;SDS011;30484;52.382;5.260;2023-06-22T09:27:40;15.82;;;10.65;;
44764;SDS011;30484;52.382;5.260;2023-06-22T09:30:09;23.40;;;11.13;;
44764;SDS011;30484;52.382;5.260;2023-06-22T09:32:38;18.58;;;9.88;;
44764;SDS011;30484;52.382;5.260;2023-06-22T09:35:07;14.48;;;9.82;;
44764;SDS011;30484;52.382;5.260;2023-06-22T09:37:40;17.23;;;10.60;;
44764;SDS011;30484;52.382;5.260;2023-06-22T09:40:09;14.60;;;8.60;;
44764;SDS011;30484;52.382;5.260;2023-06-22T09:42:41;11.30;;;7.72;;
44764;SDS011;30484;52.382;5.260;2023-06-22T09:45:10;15.45;;;9.45;;
44764;SDS011;30484;52.382;5.260;2023-06-22T09:47:38;14.00;;;9.35;;
44764;SDS011;30484;52.382;5.260;2023-06-22T09:50:08;13.57;;;7.82;;
44764;SDS011;30484;52.382;5.260;2023-06-22T09:52:37;12.20;;;8.05;;
44764;SDS011;30484;52.382;5.260;2023-06-22T09:55:08;13.45;;;9.30;;
44764;SDS011;30484;52.382;5.260;2023-06-22T09:57:36;11.95;;;8.07;;
44764;SDS011;30484;52.382;5.260;2023-06-22T10:00:07;12.48;;;8.30;;
44764;SDS011;30484;52.382;5.260;2023-06-22T10:02:39;18.20;;;8.30;;
44764;SDS011;30484;52.382;5.260;2023-06-22T10:05:09;14.82;;;7.80;;
44764;SDS011;30484;52.382;5.260;2023-06-22T10:07:38;11.25;;;7.72;;
44764;SDS011;30484;52.382;5.260;2023-06-22T10:10:09;12.30;;;8.70;;
44764;SDS011;30484;52.382;5.260;2023-06-22T10:12:41;12.82;;;7.80;;
44764;SDS011;30484;52.382;5.260;2023-06-22T10:15:12;21.27;;;11.88;;
44764;SDS011;30484;52.382;5.260;2023-06-22T10:17:41;17.42;;;10.32;;
44764;SDS011;30484;52.382;5.260;2023-06-22T10:20:10;16.42;;;11.13;;
44764;SDS011;30484;52.382;5.260;2023-06-22T10:22:39;16.55;;;10.48;;
44764;SDS011;30484;52.382;5.260;2023-06-22T10:25:09;17.17;;;11.27;;
44764;SDS011;30484;52.382;5.260;2023-06-22T10:27:39;19.48;;;10.65;;
44764;SDS011;30484;52.382;5.260;2023-06-22T10:30:08;15.45;;;10.80;;
44764;SDS011;30484;52.382;5.260;2023-06-22T10:32:41;17.42;;;11.73;;
44764;SDS011;30484;52.382;5.260;2023-06-22T10:35:10;13.88;;;10.50;;
44764;SDS011;30484;52.382;5.260;2023-06-22T10:37:42;15.27;;;10.38;;
44764;SDS011;30484;52.382;5.260;2023-06-22T10:40:12;17.70;;;9.88;;
44764;SDS011;30484;52.382;5.260;2023-06-22T10:42:42;14.27;;;10.43;;
44764;SDS011;30484;52.382;5.260;2023-06-22T10:45:10;16.13;;;10.50;;
44764;SDS011;30484;52.382;5.260;2023-06-22T10:47:41;13.48;;;10.07;;
44764;SDS011;30484;52.382;5.260;2023-06-22T10:50:10;16.58;;;10.95;;
44764;SDS011;30484;52.382;5.260;2023-06-22T10:52:38;13.45;;;9.73;;
44764;SDS011;30484;52.382;5.260;2023-06-22T10:55:10;12.82;;;10.10;;
44764;SDS011;30484;52.382;5.260;2023-06-22T10:57:38;13.25;;;9.95;;
44764;SDS011;30484;52.382;5.260;2023-06-22T11:00:10;16.83;;;11.23;;
44764;SDS011;30484;52.382;5.260;2023-06-22T11:02:41;16.30;;;10.80;;
44764;SDS011;30484;52.382;5.260;2023-06-22T11:05:11;19.88;;;12.82;;
44764;SDS011;30484;52.382;5.260;2023-06-22T11:07:41;18.98;;;11.73;;
44764;SDS011;30484;52.382;5.260;2023-06-22T11:10:15;15.70;;;10.77;;
44764;SDS011;30484;52.382;5.260;2023-06-22T11:12:44;17.45;;;12.23;;
44764;SDS011;30484;52.382;5.260;2023-06-22T11:15:13;18.27;;;11.38;;
44764;SDS011;30484;52.382;5.260;2023-06-22T11:17:44;18.85;;;10.85;;
44764;SDS011;30484;52.382;5.260;2023-06-22T11:20:13;19.05;;;11.32;;
44764;SDS011;30484;52.382;5.260;2023-06-22T11:22:43;15.15;;;10.52;;
44764;SDS011;30484;52.382;5.260;2023-06-22T11:25:12;16.48;;;11.15;;
44764;SDS011;30484;52.382;5.260;2023-06-22T11:27:41;18.25;;;12.10;;
44764;SDS011;30484;52.382;5.260;2023-06-22T11:30:10;12.75;;;9.88;;
44764;SDS011;30484;52.382;5.260;2023-06-22T11:32:40;18.00;;;13.13;;
44764;SDS011;30484;52.382;5.260;2023-06-22T11:35:14;19.42;;;11.20;;
44764;SDS011;30484;52.382;5.260;2023-06-22T11:37:46;15.95;;;11.30;;
44764;SDS011;30484;52.382;5.260;2023-06-22T11:40:15;17.98;;;10.90;;
44764;SDS011;30484;52.382;5.260;2023-06-22T11:42:46;16.88;;;12.38;;
44764;SDS011;30484;52.382;5.260;2023-06-22T11:45:15;15.93;;;10.60;;
44764;SDS011;30484;52.382;5.260;2023-06-22T11:47:46;19.88;;;11.93;;
44764;SDS011;30484;52.382;5.260;2023-06-22T11:50:15;15.63;;;11.18;;
44764;SDS011;30484;52.382;5.260;2023-06-22T11:52:45;16.77;;;11.77;;
44764;SDS011;30484;52.382;5.260;2023-06-22T11:55:14;21.00;;;12.45;;
44764;SDS011;30484;52.382;5.260;2023-06-22T11:57:52;16.30;;;10.80;;
44764;SDS011;30484;52.382;5.260;2023-06-22T12:00:22;10.45;;;7.78;;
44764;SDS011;30484;52.382;5.260;2023-06-22T12:02:57;13.02;;;6.50;;
44764;SDS011;30484;52.382;5.260;2023-06-22T12:05:27;11.10;;;6.43;;
44764;SDS011;30484;52.382;5.260;2023-06-22T12:07:56;9.45;;;5.72;;
44764;SDS011;30484;52.382;5.260;2023-06-22T12:10:26;8.50;;;5.65;;
44764;SDS011;30484;52.382;5.260;2023-06-22T12:12:56;9.02;;;5.35;;
44764;SDS011;30484;52.382;5.260;2023-06-22T12:15:26;7.45;;;5.10;;
44764;SDS011;30484;52.382;5.260;2023-06-22T12:17:56;10.68;;;5.15;;
44764;SDS011;30484;52.382;5.260;2023-06-22T12:20:25;8.65;;;5.50;;
44764;SDS011;30484;52.382;5.260;2023-06-22T12:22:55;7.43;;;5.20;;
44764;SDS011;30484;52.382;5.260;2023-06-22T12:25:24;11.30;;;5.57;;
44764;SDS011;30484;52.382;5.260;2023-06-22T12:27:53;7.72;;;4.90;;
44764;SDS011;30484;52.382;5.260;2023-06-22T12:30:22;11.50;;;5.70;;
44764;SDS011;30484;52.382;5.260;2023-06-22T12:32:51;9.77;;;5.30;;
44764;SDS011;30484;52.382;5.260;2023-06-22T12:35:23;6.68;;;5.20;;
44764;SDS011;30484;52.382;5.260;2023-06-22T12:37:52;7.32;;;5.00;;
44764;SDS011;30484;52.382;5.260;2023-06-22T12:40:21;10.52;;;5.88;;
44764;SDS011;30484;52.382;5.260;2023-06-22T12:42:50;10.40;;;5.90;;
44764;SDS011;30484;52.382;5.260;2023-06-22T12:45:19;14.05;;;6.28;;
44764;SDS011;30484;52.382;5.260;2023-06-22T12:47:48;9.75;;;6.03;;
44764;SDS011;30484;52.382;5.260;2023-06-22T12:50:17;12.32;;;6.25;;
44764;SDS011;30484;52.382;5.260;2023-06-22T12:52:47;9.55;;;6.03;;
44764;SDS011;30484;52.382;5.260;2023-06-22T12:55:16;9.02;;;6.22;;
44764;SDS011;30484;52.382;5.260;2023-06-22T12:57:45;10.98;;;6.72;;
44764;SDS011;30484;52.382;5.260;2023-06-22T13:00:14;9.52;;;6.57;;
44764;SDS011;30484;52.382;5.260;2023-06-22T13:02:46;20.95;;;7.25;;
44764;SDS011;30484;52.382;5.260;2023-06-22T13:05:16;12.43;;;7.15;;
44764;SDS011;30484;52.382;5.260;2023-06-22T13:07:45;15.25;;;7.18;;
44764;SDS011;30484;52.382;5.260;2023-06-22T13:10:15;11.48;;;6.75;;
44764;SDS011;30484;52.382;5.260;2023-06-22T13:12:45;10.88;;;7.10;;
44764;SDS011;30484;52.382;5.260;2023-06-22T13:15:13;10.88;;;7.32;;
44764;SDS011;30484;52.382;5.260;2023-06-22T13:17:42;12.20;;;7.80;;
44764;SDS011;30484;52.382;5.260;2023-06-22T13:20:11;13.95;;;8.13;;
44764;SDS011;30484;52.382;5.260;2023-06-22T13:22:40;13.52;;;7.88;;
44764;SDS011;30484;52.382;5.260;2023-06-22T13:25:10;14.73;;;8.77;;
44764;SDS011;30484;52.382;5.260;2023-06-22T13:27:41;12.63;;;8.80;;
44764;SDS011;30484;52.382;5.260;2023-06-22T13:30:10;12.20;;;7.82;;
44764;SDS011;30484;52.382;5.260;2023-06-22T13:32:40;14.50;;;8.45;;
44764;SDS011;30484;52.382;5.260;2023-06-22T13:35:10;14.32;;;9.15;;
44764;SDS011;30484;52.382;5.260;2023-06-22T13:37:39;18.38;;;9.13;;
44764;SDS011;30484;52.382;5.260;2023-06-22T13:40:08;12.70;;;9.27;;
44764;SDS011;30484;52.382;5.260;2023-06-22T13:42:37;12.50;;;8.80;;
44764;SDS011;30484;52.382;5.260;2023-06-22T13:45:10;19.42;;;8.98;;
44764;SDS011;30484;52.382;5.260;2023-06-22T13:47:39;14.43;;;8.30;;
44764;SDS011;30484;52.382;5.260;2023-06-22T13:50:08;15.35;;;8.38;;
44764;SDS011;30484;52.382;5.260;2023-06-22T13:52:39;13.15;;;8.50;;
44764;SDS011;30484;52.382;5.260;2023-06-22T13:55:08;16.65;;;8.82;;
44764;SDS011;30484;52.382;5.260;2023-06-22T13:57:37;11.65;;;7.85;;
44764;SDS011;30484;52.382;5.260;2023-06-22T14:00:08;11.80;;;8.38;;
44764;SDS011;30484;52.382;5.260;2023-06-22T14:02:39;10.90;;;7.97;;
44764;SDS011;30484;52.382;5.260;2023-06-22T14:05:09;14.20;;;7.93;;
44764;SDS011;30484;52.382;5.260;2023-06-22T14:07:39;14.70;;;8.13;;
44764;SDS011;30484;52.382;5.260;2023-06-22T14:10:11;19.90;;;9.20;;
44764;SDS011;30484;52.382;5.260;2023-06-22T14:12:42;14.43;;;8.15;;
44764;SDS011;30484;52.382;5.260;2023-06-22T14:15:12;11.90;;;8.13;;
44764;SDS011;30484;52.382;5.260;2023-06-22T14:17:41;15.05;;;8.32;;
44764;SDS011;30484;52.382;5.260;2023-06-22T14:20:11;12.98;;;8.55;;
44764;SDS011;30484;52.382;5.260;2023-06-22T14:22:40;15.15;;;9.25;;
44764;SDS011;30484;52.382;5.260;2023-06-22T14:25:09;15.63;;;9.32;;
44764;SDS011;30484;52.382;5.260;2023-06-22T14:27:37;16.15;;;8.73;;
44764;SDS011;30484;52.382;5.260;2023-06-22T14:30:06;15.98;;;9.63;;
44764;SDS011;30484;52.382;5.260;2023-06-22T14:32:38;13.98;;;9.32;;
44764;SDS011;30484;52.382;5.260;2023-06-22T14:35:07;13.93;;;9.05;;
44764;SDS011;30484;52.382;5.260;2023-06-22T14:37:36;16.25;;;9.90;;
44764;SDS011;30484;52.382;5.260;2023-06-22T14:40:05;18.48;;;10.20;;
44764;SDS011;30484;52.382;5.260;2023-06-22T14:42:35;19.63;;;9.65;;
44764;SDS011;30484;52.382;5.260;2023-06-22T14:45:05;13.75;;;10.13;;
44764;SDS011;30484;52.382;5.260;2023-06-22T14:47:38;18.70;;;11.68;;